Time;durP1;ratioP1;P1;durP2;ratioP2;P2;SDS_P1;SDS_P2;PMS_P1;PMS_P2;Temp;Humidity;BMP_temperature;BMP_pressure;BME280_temperature;BME280_humidity;BME280_pressure;Samples;Min_cycle;Max_cycle;Signal;HPM_P1;HPM_P2
2022/10/08 00:01:02;;;;;;;18.45;7.97;;;;;;;14.08;88.79;101439.38;5006076;28;20457;-76
2022/10/08 00:03:35;;;;;;;12.25;7.00;;;;;;;13.52;88.44;101326.69;4995049;28;20046;-76
2022/10/08 00:06:11;;;;;;;11.15;7.22;;;;;;;14.19;88.39;101434.13;4978635;28;20052;-71
2022/10/08 00:08:40;;;;;;;12.55;6.93;;;;;;;14.26;88.26;101440.31;4993570;28;20046;-75
2022/10/08 00:11:11;;;;;;;10.32;6.95;;;;;;;13.42;88.90;101315.25;5008007;28;20042;-75
2022/10/08 00:13:42;;;;;;;10.80;6.90;;;;;;;13.36;89.26;101316.97;5007811;28;20033;-74
2022/10/08 00:16:32;;;;;;;9.45;7.28;;;;;;;13.42;89.92;101346.00;5009321;28;20066;-76
2022/10/08 00:19:03;;;;;;;21.95;6.00;;;;;;;13.93;90.37;101424.41;5008742;28;20077;-75
2022/10/08 00:21:32;;;;;;;10.38;7.43;;;;;;;13.79;90.65;101404.13;4997071;28;20483;-72
2022/10/08 00:23:59;;;;;;;13.05;7.22;;;;;;;13.78;91.11;101402.38;4998968;28;20397;-76
2022/10/08 00:26:27;;;;;;;22.08;7.82;;;;;;;13.81;91.26;101412.91;5006979;28;20041;-75
2022/10/08 00:28:55;;;;;;;11.35;7.28;;;;;;;13.86;91.25;101433.19;5021469;28;20045;-74
2022/10/08 00:31:25;;;;;;;8.38;6.97;;;;;;;13.83;91.34;101422.59;5009391;28;20467;-76
2022/10/08 00:33:56;;;;;;;10.32;6.82;;;;;;;13.63;91.55;101382.13;5017970;28;20082;-75
2022/10/08 00:36:24;;;;;;;8.45;6.40;;;;;;;13.07;92.17;101302.78;5021666;28;20060;-73
2022/10/08 00:39:04;;;;;;;8.15;6.13;;;;;;;13.78;92.35;101434.91;5011183;28;20042;-74
2022/10/08 00:41:32;;;;;;;10.85;7.10;;;;;;;13.00;92.81;101287.81;5014301;28;20394;-74
2022/10/08 00:44:03;;;;;;;9.30;6.95;;;;;;;13.72;92.90;101412.03;5020717;28;20172;-75
2022/10/08 00:46:40;;;;;;;13.88;6.93;;;;;;;13.66;92.81;101384.75;5008284;28;20336;-74
2022/10/08 00:49:11;;;;;;;12.50;7.95;;;;;;;13.76;92.58;101404.13;5026083;28;20041;-75
2022/10/08 00:51:48;;;;;;;9.35;6.40;;;;;;;13.78;92.68;101405.00;5022739;28;20151;-75
2022/10/08 00:54:15;;;;;;;10.60;7.72;;;;;;;13.68;92.35;101389.16;5025634;28;20057;-74
2022/10/08 00:56:42;;;;;;;12.07;6.90;;;;;;;13.08;92.34;101280.81;5020607;28;20201;-74
2022/10/08 00:59:11;;;;;;;9.68;7.00;;;;;;;13.75;92.85;101399.72;5012355;28;20038;-73
2022/10/08 01:01:40;;;;;;;11.93;6.93;;;;;;;13.84;92.53;101398.00;5022174;28;20034;-76
2022/10/08 01:04:06;;;;;;;11.52;6.70;;;;;;;13.14;92.13;101281.75;5017106;28;20057;-75
2022/10/08 01:06:41;;;;;;;10.57;7.05;;;;;;;13.80;92.62;101400.63;5018834;28;20049;-75
2022/10/08 01:09:16;;;;;;;10.55;7.38;;;;;;;13.67;92.87;101381.22;5026654;28;20056;-76
2022/10/08 01:11:56;;;;;;;9.80;7.35;;;;;;;13.38;93.04;101317.88;5027423;28;20053;-75
2022/10/08 01:14:29;;;;;;;13.57;8.07;;;;;;;13.06;93.10;101269.41;5027292;28;20052;-76
2022/10/08 01:16:54;;;;;;;15.38;7.90;;;;;;;13.75;93.70;101386.53;5027807;28;20040;-75
2022/10/08 01:19:52;;;;;;;10.10;7.78;;;;;;;13.69;94.25;101382.09;5026872;28;20033;-73
2022/10/08 01:22:35;;;;;;;9.15;8.05;;;;;;;13.69;94.25;101382.09;5006664;28;20079;-74
2022/10/08 01:25:33;;;;;;;12.18;9.25;;;;;;;13.51;94.55;101359.22;5019586;28;20045;-74
2022/10/08 01:28:21;;;;;;;9.02;6.55;;;;;;;13.06;94.37;101281.69;5018199;28;20813;-75
2022/10/08 01:31:11;;;;;;;15.90;8.20;;;;;;;13.51;95.61;101383.81;5025735;28;20041;-75
2022/10/08 01:33:38;;;;;;;13.43;7.63;;;;;;;13.58;95.62;101383.81;5006787;28;20042;-75
2022/10/08 01:36:06;;;;;;;11.18;7.80;;;;;;;13.63;95.25;101380.34;5014286;28;20034;-74
2022/10/08 01:38:34;;;;;;;13.15;8.88;;;;;;;13.44;95.94;101379.41;5022066;28;20088;-75
2022/10/08 01:41:06;;;;;;;8.68;7.07;;;;;;;12.75;96.04;101260.50;5022158;28;20065;-74
2022/10/08 01:43:35;;;;;;;11.20;8.10;;;;;;;13.33;96.73;101362.66;5021531;28;20048;-73
2022/10/08 01:46:13;;;;;;;14.15;8.50;;;;;;;13.38;96.85;101375.88;5019923;28;20057;-72
2022/10/08 01:48:40;;;;;;;11.00;7.97;;;;;;;13.14;97.04;101348.50;5016888;28;20472;-75
2022/10/08 01:51:09;;;;;;;17.60;7.35;;;;;;;13.26;97.57;101376.66;5012670;28;20041;-75
2022/10/08 01:53:40;;;;;;;9.80;8.00;;;;;;;13.14;97.28;101348.50;5020455;28;20049;-72
2022/10/08 01:56:11;;;;;;;10.57;7.75;;;;;;;13.23;97.73;101379.28;5020473;28;20357;-74
2022/10/08 01:58:42;;;;;;;9.00;6.57;;;;;;;12.52;97.47;101260.38;5017028;28;20036;-73
2022/10/08 02:01:14;;;;;;;16.40;9.65;;;;;;;13.28;97.51;101382.84;5022081;28;20132;-74
2022/10/08 02:04:31;;;;;;;10.77;8.43;;;;;;;12.47;97.88;101256.84;5016014;28;20113;-74
2022/10/08 02:06:25;;;;;;;11.45;8.48;;;;;;;12.45;98.09;101254.22;5021524;28;20048;-75
2022/10/08 02:08:51;;;;;;;11.90;8.63;;;;;;;12.39;98.33;101251.53;5013073;28;20159;-75
2022/10/08 02:11:17;;;;;;;15.25;6.68;;;;;;;13.00;98.34;101352.81;5021835;28;20050;-75
2022/10/08 02:13:42;;;;;;;10.80;8.40;;;;;;;13.15;98.36;101381.00;5025137;28;20025;-74
2022/10/08 02:16:17;;;;;;;19.88;8.55;;;;;;;13.09;98.63;101382.72;5006336;28;20044;-77
2022/10/08 02:19:05;;;;;;;10.73;8.38;;;;;;;12.77;99.04;101335.13;5026578;28;20510;-74
2022/10/08 02:21:33;;;;;;;10.57;9.10;;;;;;;12.69;99.27;101328.94;5029119;28;20041;-74
2022/10/08 02:24:18;;;;;;;10.68;8.45;;;;;;;13.03;99.15;101392.34;5026196;28;20058;-77
2022/10/08 02:26:48;;;;;;;16.10;9.00;;;;;;;13.00;99.18;101369.50;5020341;28;20042;-72
2022/10/08 02:29:27;;;;;;;13.73;9.27;;;;;;;12.31;99.15;101249.72;5029247;28;20064;-74
2022/10/08 02:32:02;;;;;;;17.42;9.45;;;;;;;13.08;99.00;101385.34;5018159;28;20029;-74
2022/10/08 02:34:34;;;;;;;12.25;7.97;;;;;;;13.10;98.91;101381.84;5025132;28;20036;-73
2022/10/08 02:37:21;;;;;;;10.40;8.23;;;;;;;12.73;98.56;101317.53;5026689;28;20049;-75
2022/10/08 02:39:58;;;;;;;12.35;8.75;;;;;;;12.50;98.56;101279.66;5015412;28;20064;-75
2022/10/08 02:42:26;;;;;;;12.25;8.23;;;;;;;13.15;97.83;101373.97;5014272;28;20063;-76
2022/10/08 02:45:02;;;;;;;15.15;8.75;;;;;;;12.58;97.88;101277.97;5022014;28;20080;-73
2022/10/08 02:47:31;;;;;;;16.08;7.70;;;;;;;12.91;97.42;101332.56;5025907;28;20046;-75
2022/10/08 02:50:02;;;;;;;12.02;8.75;;;;;;;13.14;97.63;101387.16;5022782;28;20045;-73
2022/10/08 02:52:35;;;;;;;24.20;8.57;;;;;;;13.19;97.65;101391.56;5011424;28;20033;-73
2022/10/08 02:55:03;;;;;;;12.75;7.80;;;;;;;12.70;97.53;101304.38;5016313;28;20046;-73
2022/10/08 02:57:53;;;;;;;10.15;7.68;;;;;;;13.18;97.58;101387.16;5022436;28;20053;-75
2022/10/08 03:00:19;;;;;;;9.38;7.90;;;;;;;13.15;97.49;101381.88;5016567;28;20124;-75
2022/10/08 03:02:57;;;;;;;12.25;8.52;;;;;;;12.40;97.13;101240.13;5029928;28;20438;-74
2022/10/08 03:05:22;;;;;;;11.52;8.10;;;;;;;13.10;97.02;101368.66;5027653;28;20092;-74
2022/10/08 03:07:50;;;;;;;11.32;7.70;;;;;;;13.25;96.74;101385.41;5029375;28;20037;-73
2022/10/08 03:10:16;;;;;;;11.23;9.00;;;;;;;12.56;97.25;101272.69;4989538;28;20073;-73
2022/10/08 03:12:42;;;;;;;17.67;8.23;;;;;;;13.10;97.61;101375.69;5027150;28;20049;-73
2022/10/08 03:15:10;;;;;;;17.92;10.77;;;;;;;13.06;97.33;101372.19;5028473;28;20060;-74
2022/10/08 03:17:40;;;;;;;10.32;7.15;;;;;;;12.41;97.52;101254.19;5024115;28;20065;-73
2022/10/08 03:20:08;;;;;;;11.10;8.20;;;;;;;12.36;97.74;101253.25;5022294;28;20037;-74
2022/10/08 03:22:34;;;;;;;9.85;7.68;;;;;;;12.85;98.26;101348.31;5024216;28;20116;-72
2022/10/08 03:24:59;;;;;;;12.00;8.55;;;;;;;12.21;97.95;101235.63;5009822;28;20478;-74
2022/10/08 03:27:25;;;;;;;26.75;19.67;;;;;;;12.04;99.05;101240.78;5025739;28;20041;-72
2022/10/08 03:29:55;;;;;;;38.58;25.67;;;;;;;12.80;99.67;101379.91;5024560;28;20565;-73
2022/10/08 03:32:25;;;;;;;41.65;28.50;;;;;;;12.02;99.39;101243.38;5025762;28;20042;-74
2022/10/08 03:34:51;;;;;;;25.77;16.90;;;;;;;12.03;99.63;101253.06;5009167;28;20494;-73
2022/10/08 03:37:17;;;;;;;11.88;9.50;;;;;;;12.11;99.08;101246.97;5022831;28;20045;-73
2022/10/08 03:39:42;;;;;;;15.75;10.82;;;;;;;12.24;98.81;101267.22;5019906;28;20071;-72
2022/10/08 03:42:08;;;;;;;14.85;10.43;;;;;;;12.82;99.47;101369.38;5021331;28;20056;-74
2022/10/08 03:44:34;;;;;;;14.27;10.73;;;;;;;12.06;99.44;101244.31;5014783;28;20528;-73
2022/10/08 03:46:59;;;;;;;29.65;13.18;;;;;;;12.79;98.81;101348.31;5028885;28;20038;-72
2022/10/08 03:49:25;;;;;;;23.80;19.25;;;;;;;12.28;99.02;101278.66;5025752;28;20030;-73
2022/10/08 03:51:50;;;;;;;12.75;10.65;;;;;;;12.75;98.76;101351.78;5024307;28;20370;-73
2022/10/08 03:54:16;;;;;;;11.80;10.15;;;;;;;11.88;99.48;101224.00;5016613;28;20049;-74
2022/10/08 03:56:41;;;;;;;16.77;10.23;;;;;;;11.98;99.95;101238.09;4998939;28;20053;-75
2022/10/08 03:59:07;;;;;;;12.48;8.88;;;;;;;12.73;100.00;101371.97;5010436;28;20049;-75
2022/10/08 04:01:32;;;;;;;12.32;9.30;;;;;;;12.02;100.00;101259.16;5028199;28;20017;-74
2022/10/08 04:03:58;;;;;;;17.80;8.70;;;;;;;12.36;100.00;101319.03;5028906;28;20041;-76
2022/10/08 04:06:23;;;;;;;17.77;10.32;;;;;;;12.58;100.00;101378.00;5030694;28;20890;-74
2022/10/08 04:08:49;;;;;;;15.88;8.77;;;;;;;12.58;100.00;101372.75;5030093;28;20065;-75
2022/10/08 04:11:16;;;;;;;14.13;9.55;;;;;;;12.49;100.00;101376.19;5019547;28;20038;-74
2022/10/08 04:13:43;;;;;;;13.13;8.70;;;;;;;12.10;100.00;101290.78;5025294;28;20048;-75
2022/10/08 04:16:17;;;;;;;12.05;8.57;;;;;;;12.38;100.00;101352.41;5024607;28;20025;-76
2022/10/08 04:18:43;;;;;;;13.95;9.48;;;;;;;12.43;100.00;101342.81;4994831;28;20533;-74
2022/10/08 04:21:11;;;;;;;15.93;8.77;;;;;;;11.98;100.00;101260.00;5015210;28;20037;-73
2022/10/08 04:23:38;;;;;;;15.45;10.43;;;;;;;12.37;100.00;101358.56;5011979;28;20081;-72
2022/10/08 04:26:19;;;;;;;17.23;9.77;;;;;;;11.61;100.00;101233.38;5014536;28;20077;-71
2022/10/08 04:28:44;;;;;;;15.30;8.73;;;;;;;12.22;100.00;101340.00;5009243;28;20042;-74
2022/10/08 04:31:15;;;;;;;12.63;8.93;;;;;;;12.04;100.00;101320.56;5018759;28;20026;-74
2022/10/08 04:33:41;;;;;;;13.68;11.10;;;;;;;12.21;100.00;101348.78;5022470;28;20594;-74
2022/10/08 04:36:09;;;;;;;13.70;9.43;;;;;;;11.50;100.00;101224.53;5011584;28;20030;-73
2022/10/08 04:38:34;;;;;;;14.63;9.75;;;;;;;11.53;100.00;101229.78;5025239;28;20116;-74
2022/10/08 04:41:14;;;;;;;17.50;10.38;;;;;;;12.26;100.00;101352.31;5022405;28;20746;-73
2022/10/08 04:43:41;;;;;;;17.98;10.32;;;;;;;12.32;100.00;101365.53;5023510;28;20385;-73
2022/10/08 04:46:08;;;;;;;15.23;10.50;;;;;;;11.70;100.00;101258.84;5022412;28;20034;-74
2022/10/08 04:48:34;;;;;;;13.35;10.85;;;;;;;12.27;100.00;101354.09;5025801;28;20085;-73
2022/10/08 04:51:06;;;;;;;15.55;10.57;;;;;;;12.32;100.00;101357.63;5018630;28;20065;-73
2022/10/08 04:53:39;;;;;;;25.87;10.70;;;;;;;11.71;100.00;101250.13;4998007;28;20421;-73
2022/10/08 04:56:10;;;;;;;14.88;10.43;;;;;;;11.76;100.00;101258.06;5022193;28;20455;-73
2022/10/08 04:58:36;;;;;;;11.98;9.82;;;;;;;12.38;100.00;101355.03;4994899;28;20038;-72
2022/10/08 05:01:06;;;;;;;17.83;10.23;;;;;;;11.68;100.00;101241.31;5023648;28;20040;-74
2022/10/08 05:03:37;;;;;;;13.75;9.55;;;;;;;12.25;100.00;101351.44;5017956;28;20038;-73
2022/10/08 05:06:02;;;;;;;15.00;10.32;;;;;;;12.38;100.00;101377.84;5023475;28;20045;-73
2022/10/08 05:08:28;;;;;;;15.48;9.75;;;;;;;12.44;100.00;101368.25;5022793;28;20060;-74
2022/10/08 05:10:53;;;;;;;15.40;9.90;;;;;;;12.54;100.00;101378.84;5009647;28;20125;-73
2022/10/08 05:13:19;;;;;;;17.85;11.52;;;;;;;12.49;100.00;101364.78;5020945;28;20103;-73
2022/10/08 05:15:44;;;;;;;18.27;10.60;;;;;;;12.57;100.00;101373.59;5002392;28;20050;-73
2022/10/08 05:18:10;;;;;;;14.82;10.45;;;;;;;11.85;99.71;101247.63;5016942;28;20061;-73
2022/10/08 05:20:36;;;;;;;21.70;10.82;;;;;;;12.09;99.70;101278.50;5021712;28;20045;-73
2022/10/08 05:23:01;;;;;;;18.77;11.82;;;;;;;12.30;99.53;101305.88;5021520;28;20046;-72
2022/10/08 05:25:30;;;;;;;18.55;12.35;;;;;;;12.07;99.53;101279.38;5021963;28;20464;-72
2022/10/08 05:27:56;;;;;;;13.48;9.70;;;;;;;12.48;99.82;101340.22;5019940;28;20045;-73
2022/10/08 05:30:21;;;;;;;18.10;11.40;;;;;;;12.67;99.69;101372.81;5009334;28;20092;-73
2022/10/08 05:32:47;;;;;;;18.92;12.27;;;;;;;12.13;99.32;101261.03;5026045;28;20053;-73
2022/10/08 05:35:12;;;;;;;17.52;14.35;;;;;;;12.80;99.35;101376.41;5013451;28;20046;-73
2022/10/08 05:37:38;;;;;;;18.42;12.65;;;;;;;12.84;99.00;101367.66;5025842;28;20465;-72
2022/10/08 05:40:04;;;;;;;21.27;14.15;;;;;;;12.87;98.66;101368.53;5026855;28;20710;-74
2022/10/08 05:42:29;;;;;;;17.63;12.52;;;;;;;12.87;98.37;101358.00;5026218;28;20435;-74
2022/10/08 05:44:55;;;;;;;23.38;13.45;;;;;;;12.88;98.45;101369.44;5026398;28;20042;-73
2022/10/08 05:47:20;;;;;;;19.38;14.88;;;;;;;12.20;97.80;101233.88;5022619;28;20432;-74
2022/10/08 05:49:45;;;;;;;19.15;16.15;;;;;;;13.06;97.45;101379.19;5026276;28;20060;-74
2022/10/08 05:52:11;;;;;;;20.63;14.75;;;;;;;12.50;96.49;101264.75;5024374;28;20532;-75
2022/10/08 05:54:36;;;;;;;17.20;12.85;;;;;;;13.20;96.01;101371.34;5023525;28;20481;-74
2022/10/08 05:57:02;;;;;;;15.48;11.93;;;;;;;12.63;95.58;101253.41;5026387;28;20084;-73
2022/10/08 05:59:27;;;;;;;18.58;11.57;;;;;;;13.41;94.72;101363.56;5026023;28;20471;-72
2022/10/08 06:01:53;;;;;;;14.20;10.65;;;;;;;13.43;94.02;101353.03;5021371;28;21446;-74
2022/10/08 06:04:18;;;;;;;17.88;11.18;;;;;;;13.60;94.11;101388.25;5007566;28;20037;-74
2022/10/08 06:06:44;;;;;;;13.00;9.48;;;;;;;13.61;93.51;101357.50;5003772;28;20046;-72
2022/10/08 06:09:12;;;;;;;25.70;9.82;;;;;;;13.64;93.20;101368.91;5026190;28;20050;-73
2022/10/08 06:11:38;;;;;;;16.38;9.55;;;;;;;13.14;93.94;101250.13;5008153;28;20052;-73
2022/10/08 06:14:06;;;;;;;11.82;10.15;;;;;;;13.40;92.25;101280.09;5018156;28;20046;-73
2022/10/08 06:16:33;;;;;;;16.92;10.15;;;;;;;13.92;91.11;101353.16;5016008;28;20052;-73
2022/10/08 06:19:00;;;;;;;15.10;11.02;;;;;;;13.25;91.45;101245.72;5017911;28;20050;-73
2022/10/08 06:21:28;;;;;;;15.55;10.00;;;;;;;13.35;91.31;101239.66;5025501;28;20033;-72
2022/10/08 06:23:58;;;;;;;17.17;10.80;;;;;;;13.46;90.70;101244.94;5020245;28;20049;-73
2022/10/08 06:26:26;;;;;;;18.80;10.68;;;;;;;13.68;89.84;101270.47;5024527;28;20057;-73
2022/10/08 06:28:52;;;;;;;14.80;9.23;;;;;;;14.28;90.16;101373.41;5018907;28;20501;-73
2022/10/08 06:31:18;;;;;;;13.02;9.35;;;;;;;14.36;89.68;101378.69;5025150;28;20021;-73
2022/10/08 06:33:44;;;;;;;15.57;11.48;;;;;;;14.33;88.33;101371.66;5020618;28;20072;-72
2022/10/08 06:36:24;;;;;;;20.40;12.25;;;;;;;13.79;88.20;101267.84;5016987;28;20064;-72
2022/10/08 06:38:58;;;;;;;19.63;12.85;;;;;;;14.54;87.92;101381.38;5024468;28;20456;-73
2022/10/08 06:41:24;;;;;;;20.15;14.57;;;;;;;14.69;86.96;101374.31;5026515;28;20069;-72
2022/10/08 06:43:50;;;;;;;20.33;15.57;;;;;;;14.05;85.06;101253.78;5025813;28;20032;-72
2022/10/08 06:46:17;;;;;;;28.15;20.08;;;;;;;14.15;85.61;101256.38;5015758;28;20469;-73
2022/10/08 06:48:42;;;;;;;27.00;17.70;;;;;;;14.79;85.08;101360.19;5018027;28;20670;-74
2022/10/08 06:51:13;;;;;;;22.67;14.77;;;;;;;14.29;84.53;101258.13;5025280;28;20084;-73
2022/10/08 06:53:40;;;;;;;18.90;11.98;;;;;;;15.05;83.05;101360.09;5025786;28;20049;-73
2022/10/08 06:56:09;;;;;;;23.17;11.95;;;;;;;14.53;83.16;101276.53;5025788;28;20068;-73
2022/10/08 06:58:35;;;;;;;15.25;11.13;;;;;;;14.96;83.62;101354.84;5025262;28;20044;-74
2022/10/08 07:01:05;;;;;;;13.82;10.30;;;;;;;15.32;82.50;101385.59;5007652;28;20513;-73
2022/10/08 07:03:30;;;;;;;13.35;9.40;;;;;;;14.65;81.72;101243.97;5021887;28;20473;-74
2022/10/08 07:05:59;;;;;;;12.05;9.25;;;;;;;15.43;80.53;101374.06;5027114;28;20044;-74
2022/10/08 07:08:24;;;;;;;17.48;7.47;;;;;;;14.81;79.74;101260.66;5010006;28;20057;-74
2022/10/08 07:10:50;;;;;;;13.93;7.15;;;;;;;15.41;79.17;101358.22;5036989;28;20025;-72
2022/10/08 07:13:16;;;;;;;15.15;7.32;;;;;;;15.30;79.41;101337.09;5020281;28;20466;-74
2022/10/08 07:15:41;;;;;;;11.55;6.53;;;;;;;15.45;79.39;101338.78;5018775;28;20041;-73
2022/10/08 07:18:10;;;;;;;11.60;6.80;;;;;;;15.19;78.41;101273.72;5015399;28;20038;-72
2022/10/08 07:20:36;;;;;;;12.52;7.68;;;;;;;15.77;78.57;101372.16;5025929;28;20050;-72
2022/10/08 07:23:01;;;;;;;13.88;6.82;;;;;;;15.36;78.55;101284.19;5029059;28;20111;-73
2022/10/08 07:25:28;;;;;;;13.88;6.20;;;;;;;15.20;78.06;101242.84;5010951;28;20579;-74
2022/10/08 07:27:53;;;;;;;10.07;7.22;;;;;;;15.99;78.35;101373.78;5025144;28;20068;-73
2022/10/08 07:30:18;;;;;;;9.00;7.63;;;;;;;16.08;78.16;101371.97;5028860;28;20045;-73
2022/10/08 07:32:44;;;;;;;11.02;6.28;;;;;;;16.00;76.53;101364.94;5026660;28;20076;-72
2022/10/08 07:35:09;;;;;;;8.60;5.65;;;;;;;15.52;75.74;101255.88;5019600;28;20850;-72
2022/10/08 07:37:35;;;;;;;8.75;6.00;;;;;;;15.54;76.34;101250.56;5015392;28;20030;-72
2022/10/08 07:40:00;;;;;;;10.73;6.85;;;;;;;16.09;75.98;101337.53;5011685;28;20640;-75
2022/10/08 07:42:26;;;;;;;10.43;6.63;;;;;;;16.25;74.69;101347.13;5026470;28;20041;-74
2022/10/08 07:44:51;;;;;;;11.93;6.15;;;;;;;16.38;74.40;101354.94;5016438;28;20055;-74
2022/10/08 07:47:17;;;;;;;11.40;6.53;;;;;;;16.46;74.57;101350.47;5023235;28;20057;-75
2022/10/08 07:49:42;;;;;;;18.17;7.55;;;;;;;16.48;74.43;101358.38;5028902;28;20025;-74
2022/10/08 07:52:08;;;;;;;8.38;6.20;;;;;;;15.94;74.59;101256.44;5028852;28;20144;-75
2022/10/08 07:54:33;;;;;;;10.15;6.00;;;;;;;15.94;73.69;101234.41;5017094;28;20795;-73
2022/10/08 07:57:00;;;;;;;8.52;6.00;;;;;;;16.74;73.39;101345.78;5025804;28;20198;-74
2022/10/08 07:59:27;;;;;;;14.48;6.70;;;;;;;16.65;72.87;101340.56;5024251;28;20053;-73
2022/10/08 08:01:52;;;;;;;15.35;8.00;;;;;;;16.11;72.70;101226.31;5028299;28;20492;-74
2022/10/08 08:04:18;;;;;;;10.77;7.18;;;;;;;16.87;71.99;101339.47;5022665;28;21127;-73
2022/10/08 08:06:51;;;;;;;7.68;5.90;;;;;;;15.92;72.09;101175.31;5027885;28;20362;-74
2022/10/08 08:09:17;;;;;;;12.93;6.53;;;;;;;16.50;72.49;101280.66;5012946;28;20096;-74
2022/10/08 08:11:44;;;;;;;18.15;6.93;;;;;;;16.72;73.12;101299.00;5018062;28;20056;-73
2022/10/08 08:14:10;;;;;;;8.73;5.93;;;;;;;16.42;72.60;101233.03;5025908;28;20563;-73
2022/10/08 08:16:37;;;;;;;11.55;6.75;;;;;;;17.20;71.35;101337.31;5015394;28;20056;-73
2022/10/08 08:19:02;;;;;;;12.93;6.03;;;;;;;17.15;70.80;101327.66;5012869;28;20117;-72
2022/10/08 08:21:33;;;;;;;8.23;7.18;;;;;;;17.21;70.20;101335.56;5027981;28;20124;-74
2022/10/08 08:24:04;;;;;;;14.55;7.38;;;;;;;16.77;69.90;101239.72;5005692;28;20492;-73
2022/10/08 08:26:33;;;;;;;10.40;6.80;;;;;;;17.25;70.28;101324.00;5003831;28;20138;-74
2022/10/08 08:29:03;;;;;;;8.10;5.50;;;;;;;16.70;70.74;101223.91;5023266;28;20033;-75
2022/10/08 08:31:32;;;;;;;14.00;6.75;;;;;;;17.35;70.32;101328.28;5020978;28;20040;-75
2022/10/08 08:34:01;;;;;;;14.10;6.10;;;;;;;17.33;70.13;101300.91;5000109;28;20136;-75
2022/10/08 08:36:33;;;;;;;11.57;8.48;;;;;;;16.84;68.95;101229.94;5021223;28;20049;-73
2022/10/08 08:38:59;;;;;;;10.88;7.47;;;;;;;17.44;68.60;101314.00;5025882;28;20045;-73
2022/10/08 08:41:49;;;;;;;16.50;8.00;;;;;;;17.44;68.83;101314.00;5022500;28;20057;-75
2022/10/08 08:44:38;;;;;;;10.70;7.75;;;;;;;17.61;68.10;101316.44;5020821;28;20095;-75
2022/10/08 08:47:18;;;;;;;14.07;7.30;;;;;;;17.61;68.52;101319.97;5027025;28;20046;-75
2022/10/08 08:49:53;;;;;;;12.02;7.22;;;;;;;17.64;67.66;101301.34;5027248;28;20033;-74
2022/10/08 08:52:23;;;;;;;11.90;6.97;;;;;;;17.26;67.76;101212.56;5026805;28;20057;-75
2022/10/08 08:54:52;;;;;;;19.15;7.35;;;;;;;17.23;68.38;101198.47;5026910;28;20049;-75
2022/10/08 08:57:47;;;;;;;12.98;6.50;;;;;;;17.80;67.85;101312.59;5000263;28;20045;-76
2022/10/08 09:00:18;;;;;;;17.10;6.97;;;;;;;17.95;67.41;101306.19;5017335;28;20136;-74
2022/10/08 09:03:10;;;;;;;11.52;7.50;;;;;;;17.29;68.13;101219.59;5017959;28;20041;-74
2022/10/08 09:05:40;;;;;;;14.20;8.57;;;;;;;17.88;66.66;101308.06;5015661;28;20141;-73
2022/10/08 09:08:08;;;;;;;10.50;7.28;;;;;;;18.01;67.27;101298.13;5017318;28;20096;-74
2022/10/08 09:10:46;;;;;;;8.75;6.78;;;;;;;17.35;66.73;101193.00;5012051;28;20053;-76
2022/10/08 09:13:18;;;;;;;15.13;7.35;;;;;;;17.99;66.54;101277.81;5008896;28;20057;-76
2022/10/08 09:15:54;;;;;;;11.80;8.18;;;;;;;18.07;67.17;101290.06;5017388;28;20044;-74
2022/10/08 09:18:19;;;;;;;8.63;6.93;;;;;;;17.56;64.97;101181.16;4991838;28;20136;-75
2022/10/08 09:20:45;;;;;;;10.90;6.47;;;;;;;18.12;65.09;101255.44;5014715;28;20045;-73
2022/10/08 09:23:30;;;;;;;10.43;6.90;;;;;;;17.83;64.46;101186.91;5015340;28;20657;-74
2022/10/08 09:26:07;;;;;;;17.73;6.35;;;;;;;17.65;64.88;101174.78;5016738;28;21039;-74
2022/10/08 09:28:44;;;;;;;9.60;5.75;;;;;;;17.62;65.24;101158.94;5017428;28;20125;-74
2022/10/08 09:31:37;;;;;;;9.27;5.28;;;;;;;18.42;64.05;101277.06;5003583;28;20764;-75
2022/10/08 09:34:08;;;;;;;12.40;5.55;;;;;;;18.61;63.54;101272.25;5018071;28;20052;-75
2022/10/08 09:37:00;;;;;;;12.10;5.43;;;;;;;18.54;63.61;101268.84;4997695;28;20123;-74
2022/10/08 09:39:29;;;;;;;9.40;4.63;;;;;;;18.06;62.24;101157.28;5007420;28;20092;-75
2022/10/08 09:42:07;;;;;;;7.70;4.70;;;;;;;18.61;62.83;101266.94;5020000;28;20548;-75
2022/10/08 09:44:42;;;;;;;12.30;4.63;;;;;;;18.12;63.67;101163.38;5017444;28;20054;-75
2022/10/08 09:47:13;;;;;;;7.97;5.15;;;;;;;18.72;61.67;101249.88;5033092;28;20123;-74
2022/10/08 09:49:39;;;;;;;10.23;5.75;;;;;;;18.35;61.65;101164.69;4995557;28;20029;-75
2022/10/08 09:52:18;;;;;;;11.60;6.20;;;;;;;18.79;61.86;101218.75;4995983;28;20088;-74
2022/10/08 09:55:00;;;;;;;9.52;4.28;;;;;;;18.79;62.01;101237.38;5009960;28;20073;-74
2022/10/08 09:57:31;;;;;;;7.20;4.95;;;;;;;19.05;59.92;101230.63;5002279;28;20057;-80
2022/10/08 09:59:59;;;;;;;7.25;3.70;;;;;;;18.66;59.86;101199.50;4992726;28;20556;-76
2022/10/08 10:02:35;;;;;;;12.35;4.65;;;;;;;19.10;59.15;101236.69;5008047;28;20049;-76
2022/10/08 10:05:06;;;;;;;9.00;4.50;;;;;;;18.63;59.04;101125.13;5031209;28;20065;-78
2022/10/08 10:07:41;;;;;;;10.82;3.85;;;;;;;18.58;56.33;101126.13;5023414;28;20492;-76
2022/10/08 10:10:31;;;;;;;7.80;3.50;;;;;;;18.59;58.01;101104.84;5017778;28;20072;-76
2022/10/08 10:13:43;;;;;;;5.93;3.95;;;;;;;19.18;58.26;101214.34;5006877;28;20072;-75
2022/10/08 10:16:37;;;;;;;5.93;3.53;;;;;;;19.35;57.75;101216.63;5014494;28;20051;-81
2022/10/08 10:19:14;;;;;;;6.20;3.78;;;;;;;18.88;59.04;101093.56;5020632;28;20045;-76
2022/10/08 10:21:48;;;;;;;5.45;3.50;;;;;;;19.57;56.10;101198.34;5020509;28;20183;-77
2022/10/08 10:24:52;;;;;;;10.50;4.32;;;;;;;19.72;55.83;101202.44;5017632;28;20141;-76
2022/10/08 10:27:34;;;;;;;6.57;3.97;;;;;;;19.69;56.80;101127.97;4998324;28;20041;-75
2022/10/08 10:30:08;;;;;;;8.82;4.75;;;;;;;20.28;54.94;101166.34;4984532;28;20045;-77
2022/10/08 10:32:47;;;;;;;5.93;2.75;;;;;;;20.29;52.79;101190.28;4973929;28;20046;-79
2022/10/08 10:35:24;;;;;;;12.07;3.88;;;;;;;19.96;54.16;101166.28;4966219;28;20145;-76
2022/10/08 10:38:19;;;;;;;7.13;3.50;;;;;;;20.27;53.91;101173.44;4974448;28;20030;-75
2022/10/08 10:40:59;;;;;;;8.02;3.85;;;;;;;20.35;52.91;101157.25;4898724;28;20220;-75
2022/10/08 10:43:32;;;;;;;7.38;3.60;;;;;;;20.76;55.76;101165.84;4985187;28;20074;-75
2022/10/08 10:46:08;;;;;;;11.18;4.28;;;;;;;20.61;52.57;101148.53;4985952;28;20155;-74
2022/10/08 10:48:33;;;;;;;12.50;3.60;;;;;;;19.86;51.63;101052.06;4990110;28;20043;-74
2022/10/08 10:51:28;;;;;;;7.72;3.90;;;;;;;20.39;52.58;101158.91;4982876;28;20054;-74
2022/10/08 10:54:31;;;;;;;9.50;3.85;;;;;;;20.51;51.93;101158.56;4990668;28;20050;-74
2022/10/08 10:57:30;;;;;;;6.70;3.65;;;;;;;19.82;52.06;101043.28;4989712;28;20061;-74
2022/10/08 11:00:07;;;;;;;6.13;3.63;;;;;;;19.82;51.49;101044.16;4985247;28;20047;-75
2022/10/08 11:02:55;;;;;;;5.90;3.05;;;;;;;20.52;53.13;101128.31;4987644;28;20081;-76
2022/10/08 11:05:34;;;;;;;5.72;3.42;;;;;;;20.40;53.29;101030.91;4986725;28;20047;-75
2022/10/08 11:07:59;;;;;;;5.72;3.38;;;;;;;21.16;51.28;101120.09;4974278;28;20062;-75
2022/10/08 11:10:32;;;;;;;9.15;3.95;;;;;;;21.18;49.60;101133.41;4982058;28;20041;-76
2022/10/08 11:13:16;;;;;;;5.57;3.25;;;;;;;20.87;48.88;101119.25;4968322;28;20062;-75
2022/10/08 11:16:10;;;;;;;9.23;3.78;;;;;;;20.96;50.01;101117.22;4980847;28;20051;-75
2022/10/08 11:18:57;;;;;;;16.17;3.78;;;;;;;21.10;50.63;101090.09;4918046;28;20051;-76
2022/10/08 11:21:35;;;;;;;4.97;2.97;;;;;;;20.95;49.75;101103.00;4965504;28;20124;-76
2022/10/08 11:24:29;;;;;;;7.40;3.30;;;;;;;20.54;49.53;100989.63;4987585;28;20055;-77
2022/10/08 11:26:58;;;;;;;25.35;6.32;;;;;;;20.43;48.09;101020.13;4978013;28;20074;-77
2022/10/08 11:29:42;;;;;;;5.60;2.95;;;;;;;20.68;47.66;101102.09;4988290;28;20034;-78
2022/10/08 11:32:14;;;;;;;5.28;2.72;;;;;;;20.62;47.68;101033.78;4976364;28;20076;-78
2022/10/08 11:34:52;;;;;;;5.65;2.80;;;;;;;20.19;48.34;100986.25;4981118;28;20038;-77
2022/10/08 11:37:39;;;;;;;6.10;2.92;;;;;;;21.27;48.72;101093.94;4983910;28;21372;-78